Chandler, OK (74834)

11:26 AM CST on January 16, 2017 (GMT -0600)
West of Davenport Ok | | Change Station

Elev 0 ft 35.71 °N, 96.77 °W | Updated 6 minutes ago

Overcast
Overcast
46.0 °F
Feels Like 41 °F
N
11.2
Wind Variable Wind from WSW
Gusts 15.4 mph

Today
High -- | Low -- °F
--% Chance of Precip.
Yesterday
High -- | Low -- °F
Precip. -- in
Pressure 29.96 in
Visibility 10.0 miles
Clouds Overcast 900 ft
Windchill 41 °F
Dew Point 43 °F
Humidity 89%
Rainfall 0.50 in
Snow Depth Not available.
7:36 AM 5:38 PM
Waning Gibbous, 80% visible
METAR KCQB 161715Z AUTO 24010G14KT 10SM OVC009 06/05 A2996 RMK AO2
Pressure 29.96 in
Visibility 10.0 miles
Clouds Overcast 900 ft
Windchill 41 °F
Dew Point 43 °F
Humidity 89%
Rainfall 0.50 in
Snow Depth Not available.
7:36 AM 5:38 PM
Waning Gibbous, 80% visible
METAR KCQB 161715Z AUTO 24010G14KT 10SM OVC009 06/05 A2996 RMK AO2

Get Your Daily Forecast Email!

Thanks for signing up!

Be on the lookout for a verification email in your inbox.

You'll start receiving the daily forecast at 8 AM.

×

10-Day Weather Forecast

Almanac

Astronomy

Jan. 16, 2017 Rise Set
Actual Time
Civil Twilight
Nautical Twilight
Astronomical Twilight
Moon
Length of Visible Light
Length of Day
Tomorrow will be .
, % of the Moon is Illuminated

Today's Extremes

State Highs State Lows

Community

WunderPhotos

Upload Photos

1,962,540 photos uploaded!

WunderBlog® & News

Nearby

Air Quality

  Air Quality AQ Index Pollutant
Not available.

Snow Depth

Station Depth Elevation

Earthquake Activity

City Distance Mag. Time & Date
Minimum magnitude displayed is 2.5.

Coastal Water Temperatures

Place Temperature

Stations

Nearby Weather Stations

Station Location Temp. Windchill Dew Point Humidity Wind Precip. Elev Updated Type
                   

Watches & Warnings

There are currently no watches in effect.